Terminal Aerodrome Forecast
Issued by NWS

Home | Current Version | Previous Version | Text Only | Print | Product List | Glossary On
Versions: 1 2 3 4 5 6 7 8 9 10 11 12 13 14 15 16 17 18
000
FTUS41 KGYX 180534
TAFHIE
TAF
KHIE 180534Z 1806/1906 VRB03KT P6SM BKN050
     FM181500 24009KT 3SM -SHRA BR BKN020 OVC050
     FM182000 30005KT 3SM -RA BR OVC025
     FM190000 31005KT 6SM BR OVC025=

USA.gov is the U.S. government's official web portal to all federal, state and local government web resources and services.